createdAt,value
2023-01-02T00:01:37.524Z,7.74
2023-01-02T00:04:10.687Z,7.75
2023-01-02T00:06:44.763Z,7.73
2023-01-02T00:09:18.672Z,7.68
2023-01-02T00:11:51.408Z,7.63
2023-01-02T00:14:26.243Z,7.56
2023-01-02T00:16:58.703Z,7.53
2023-01-02T00:19:31.193Z,7.55
2023-01-02T00:22:06.250Z,7.56
2023-01-02T00:24:40.159Z,7.52
2023-01-02T00:27:14.182Z,7.50
2023-01-02T00:29:47.101Z,7.48
2023-01-02T00:32:19.922Z,7.49
2023-01-02T00:34:52.527Z,7.46
2023-01-02T00:37:24.984Z,7.45
2023-01-02T00:39:57.731Z,7.45
2023-01-02T00:42:30.717Z,7.44
2023-01-02T00:45:05.267Z,7.43
2023-01-02T00:47:37.663Z,7.43
2023-01-02T00:50:11.815Z,7.41
2023-01-02T00:52:46.013Z,7.39
2023-01-02T00:55:18.821Z,7.36
2023-01-02T00:57:51.231Z,7.36
2023-01-02T01:00:24.797Z,7.32
2023-01-02T01:03:00.544Z,7.29
2023-01-02T01:05:33.403Z,7.26
2023-01-02T01:08:05.802Z,7.23
2023-01-02T01:10:42.807Z,7.18
2023-01-02T01:13:15.193Z,7.14
2023-01-02T01:15:47.727Z,7.13
2023-01-02T01:18:20.205Z,7.11
2023-01-02T01:20:53.102Z,7.15
2023-01-02T01:23:25.432Z,7.17
2023-01-02T01:25:58.299Z,7.13
2023-01-02T01:28:30.604Z,7.10
2023-01-02T01:31:07.292Z,7.08
2023-01-02T01:33:44.364Z,7.07
2023-01-02T01:36:18.738Z,7.05
2023-01-02T01:38:51.746Z,7.01
2023-01-02T01:41:27.451Z,6.98
2023-01-02T01:44:01.685Z,6.98
2023-01-02T01:46:38.941Z,6.98
2023-01-02T01:49:16.364Z,7.00
2023-01-02T01:51:56.365Z,6.96
2023-01-02T01:54:31.972Z,6.98
2023-01-02T01:57:06.807Z,6.93
2023-01-02T01:59:39.714Z,6.88
2023-01-02T02:02:12.493Z,6.90
2023-01-02T02:04:47.241Z,6.88
2023-01-02T02:07:19.925Z,6.81
2023-01-02T02:09:56.841Z,6.73
2023-01-02T02:12:31.382Z,6.64
2023-01-02T02:15:03.842Z,6.63
2023-01-02T02:17:46.712Z,6.60
2023-01-02T02:20:32.202Z,6.61
2023-01-02T02:23:44.816Z,6.58
2023-01-02T02:26:38.965Z,6.54
2023-01-02T02:29:37.279Z,6.51
2023-01-02T02:32:17.764Z,6.45
2023-01-02T02:34:56.083Z,6.43
2023-01-02T02:37:35.021Z,6.42
2023-01-02T02:40:29.311Z,6.38
2023-01-02T02:43:02.681Z,6.36
2023-01-02T02:45:42.365Z,6.28
2023-01-02T02:48:22.773Z,6.30
2023-01-02T02:51:02.767Z,6.30
2023-01-02T02:53:39.543Z,6.30
2023-01-02T02:56:14.969Z,6.28
2023-01-02T02:58:48.111Z,6.28
2023-01-02T03:01:30.925Z,6.22
2023-01-02T03:04:03.920Z,6.21
2023-01-02T03:06:52.323Z,6.16
2023-01-02T03:09:35.744Z,5.98
2023-01-02T03:12:20.263Z,5.92
2023-01-02T03:15:08.797Z,5.81
2023-01-02T03:17:56.065Z,5.71
2023-01-02T03:20:35.692Z,5.59
2023-01-02T03:23:13.082Z,5.54
2023-01-02T03:25:48.026Z,5.47
2023-01-02T03:28:24.714Z,5.36
2023-01-02T03:31:03.536Z,5.25
2023-01-02T03:33:41.452Z,5.18
2023-01-02T03:36:18.960Z,5.06
2023-01-02T03:38:57.934Z,4.98
2023-01-02T03:41:34.831Z,4.83
2023-01-02T03:44:10.974Z,4.82
2023-01-02T03:46:50.264Z,4.80
2023-01-02T03:49:28.844Z,4.76
2023-01-02T03:52:01.477Z,4.78
2023-01-02T03:54:34.863Z,4.88
2023-01-02T03:57:15.226Z,4.96
2023-01-02T03:59:59.663Z,5.02
2023-01-02T04:02:39.226Z,5.10
2023-01-02T04:05:17.090Z,5.12
2023-01-02T04:07:58.044Z,5.11
2023-01-02T04:10:32.679Z,5.12
2023-01-02T04:13:10.474Z,5.15
2023-01-02T04:15:45.250Z,5.17
2023-01-02T04:18:22.084Z,5.12
2023-01-02T04:21:01.283Z,5.19
2023-01-02T04:23:39.463Z,5.19
2023-01-02T04:26:16.983Z,5.14
2023-01-02T04:28:50.204Z,5.12
2023-01-02T04:31:27.239Z,5.11
2023-01-02T04:34:02.533Z,5.13
2023-01-02T04:36:42.056Z,5.16
2023-01-02T04:39:14.843Z,5.18
2023-01-02T04:41:47.365Z,5.19
2023-01-02T04:44:20.010Z,5.15
2023-01-02T04:46:52.490Z,5.12
2023-01-02T04:49:27.129Z,5.10
2023-01-02T04:51:59.651Z,5.09
2023-01-02T04:54:33.723Z,5.08
2023-01-02T04:57:06.357Z,5.08
2023-01-02T04:59:38.824Z,5.12
2023-01-02T05:02:11.878Z,5.12
2023-01-02T05:04:44.444Z,5.10
2023-01-02T05:07:17.092Z,5.07
2023-01-02T05:09:49.644Z,5.09
2023-01-02T05:12:22.080Z,5.11
2023-01-02T05:14:54.732Z,5.09
2023-01-02T05:17:27.244Z,5.10
2023-01-02T05:19:59.942Z,5.09
2023-01-02T05:22:49.833Z,5.08
2023-01-02T05:25:22.467Z,5.01
2023-01-02T05:27:57.508Z,4.99
2023-01-02T05:30:32.580Z,5.02
2023-01-02T05:33:05.265Z,5.14
2023-01-02T05:35:38.642Z,5.23
2023-01-02T05:38:09.564Z,5.25
2023-01-02T05:40:42.134Z,5.19
2023-01-02T05:43:14.751Z,5.22
2023-01-02T05:45:47.253Z,5.24
2023-01-02T05:48:22.274Z,5.11
2023-01-02T05:50:55.224Z,5.08
2023-01-02T05:53:27.780Z,5.16
2023-01-02T05:56:07.791Z,5.22
2023-01-02T05:58:42.321Z,5.33
2023-01-02T06:01:18.521Z,5.35
2023-01-02T06:03:52.398Z,5.38
2023-01-02T06:06:27.788Z,5.40
2023-01-02T06:09:01.660Z,5.43
2023-01-02T06:11:34.721Z,5.45
2023-01-02T06:14:09.250Z,5.45
2023-01-02T06:16:42.132Z,5.48
2023-01-02T06:19:14.870Z,5.49
2023-01-02T06:21:47.325Z,5.49
2023-01-02T06:24:20.064Z,5.50
2023-01-02T06:26:52.893Z,5.48
2023-01-02T06:29:25.654Z,5.42
2023-01-02T06:31:58.951Z,5.38
2023-01-02T06:34:31.621Z,5.47
2023-01-02T06:37:09.519Z,5.52
2023-01-02T06:39:42.696Z,5.53
2023-01-02T06:42:15.682Z,5.61
2023-01-02T06:44:48.425Z,5.63
2023-01-02T06:47:20.976Z,5.65
2023-01-02T06:49:56.424Z,5.71
2023-01-02T06:52:31.207Z,5.74
2023-01-02T06:55:06.316Z,5.73
2023-01-02T06:57:38.735Z,5.73
2023-01-02T07:00:13.523Z,5.71
2023-01-02T07:02:46.242Z,5.71
2023-01-02T07:05:24.374Z,5.70
2023-01-02T07:07:57.306Z,5.70
2023-01-02T07:10:29.952Z,5.72
2023-01-02T07:13:03.823Z,5.74
2023-01-02T07:15:36.825Z,5.80
2023-01-02T07:18:09.601Z,5.84
2023-01-02T07:20:42.541Z,5.92
2023-01-02T07:23:15.693Z,5.97
2023-01-02T07:25:52.444Z,6.03
2023-01-02T07:28:25.705Z,6.08
2023-01-02T07:31:02.608Z,6.15
2023-01-02T07:33:35.835Z,6.27
2023-01-02T07:36:12.128Z,6.54
2023-01-02T07:38:44.932Z,6.91
2023-01-02T07:41:20.210Z,7.14
2023-01-02T07:43:53.254Z,7.21
2023-01-02T07:46:26.161Z,7.33
2023-01-02T07:48:58.923Z,7.38
2023-01-02T07:51:32.686Z,7.43
2023-01-02T07:54:05.608Z,7.52
2023-01-02T07:56:38.474Z,7.53
2023-01-02T07:59:11.474Z,7.59
2023-01-02T08:01:44.248Z,7.58
2023-01-02T08:04:17.020Z,7.63
2023-01-02T08:06:49.760Z,7.68
2023-01-02T08:09:22.677Z,7.78
2023-01-02T08:11:55.535Z,7.85
2023-01-02T08:14:28.202Z,7.99
2023-01-02T08:17:12.706Z,8.16
2023-01-02T08:19:45.421Z,8.34
2023-01-02T08:22:18.044Z,8.40
2023-01-02T08:24:50.689Z,8.44
2023-01-02T08:27:23.943Z,8.41
2023-01-02T08:29:57.667Z,8.41
2023-01-02T08:32:30.427Z,8.44
2023-01-02T08:35:02.906Z,8.47
2023-01-02T08:37:38.633Z,8.56
2023-01-02T08:40:15.035Z,8.69
2023-01-02T08:42:48.105Z,8.75
2023-01-02T08:45:20.923Z,8.78
2023-01-02T08:47:54.192Z,8.90
2023-01-02T08:50:26.984Z,8.95
2023-01-02T08:52:59.812Z,9.03
2023-01-02T08:55:33.282Z,9.10
2023-01-02T08:58:05.851Z,9.20
2023-01-02T09:00:38.350Z,9.28
2023-01-02T09:03:16.985Z,9.26
2023-01-02T09:05:49.983Z,9.31
2023-01-02T09:08:23.225Z,9.40
2023-01-02T09:10:55.968Z,9.36
2023-01-02T09:13:28.743Z,9.47
2023-01-02T09:16:01.546Z,9.57
2023-01-02T09:18:34.850Z,9.44
2023-01-02T09:21:08.146Z,9.49
2023-01-02T09:23:41.563Z,9.45
2023-01-02T09:26:15.512Z,9.41
2023-01-02T09:28:48.444Z,9.41
2023-01-02T09:31:22.651Z,9.32
2023-01-02T09:33:56.933Z,9.31
2023-01-02T09:36:29.909Z,9.35
2023-01-02T09:39:03.732Z,9.29
2023-01-02T09:41:40.629Z,9.35
2023-01-02T09:44:20.252Z,9.39
2023-01-02T09:46:57.296Z,9.39
2023-01-02T09:49:32.966Z,9.27
2023-01-02T09:52:06.117Z,9.22
2023-01-02T09:54:39.563Z,9.27
2023-01-02T09:57:27.616Z,9.28
2023-01-02T10:00:06.404Z,9.38
2023-01-02T10:03:08.659Z,9.41
2023-01-02T10:06:13.022Z,9.45
2023-01-02T10:09:03.901Z,9.48
2023-01-02T10:11:55.439Z,9.63
2023-01-02T10:14:44.335Z,9.83
2023-01-02T10:17:19.026Z,10.01
2023-01-02T10:19:58.139Z,9.92
2023-01-02T10:22:37.799Z,9.91
2023-01-02T10:25:19.273Z,9.77
2023-01-02T10:27:56.250Z,9.67
2023-01-02T10:30:34.880Z,9.69
2023-01-02T10:33:12.639Z,9.70
2023-01-02T10:35:52.636Z,9.85
2023-01-02T10:38:25.590Z,9.93
2023-01-02T10:41:01.402Z,10.19
2023-01-02T10:43:35.461Z,10.43
2023-01-02T10:46:08.710Z,10.62
2023-01-02T10:48:48.530Z,10.67
2023-01-02T10:51:25.813Z,10.67
2023-01-02T10:54:07.874Z,10.76
2023-01-02T10:56:46.740Z,10.96
2023-01-02T10:59:26.209Z,11.15
2023-01-02T11:02:01.594Z,11.21
2023-01-02T11:04:34.635Z,11.31
2023-01-02T11:07:07.702Z,11.45
2023-01-02T11:09:42.943Z,11.47
2023-01-02T11:12:16.558Z,11.47
2023-01-02T11:14:50.427Z,11.40
2023-01-02T11:17:24.430Z,11.47
2023-01-02T11:19:58.622Z,11.41
2023-01-02T11:22:41.244Z,11.39
2023-01-02T11:25:24.423Z,11.36
2023-01-02T11:28:01.475Z,11.48
2023-01-02T11:30:46.073Z,11.49
2023-01-02T11:33:29.262Z,11.56
2023-01-02T11:36:17.033Z,11.65
2023-01-02T11:38:51.717Z,11.80
2023-01-02T11:41:44.328Z,11.82
2023-01-02T11:44:23.367Z,11.96
2023-01-02T11:46:59.225Z,11.97
2023-01-02T11:49:38.423Z,12.09
2023-01-02T11:52:17.802Z,12.11
2023-01-02T11:54:59.270Z,12.13
2023-01-02T11:57:40.720Z,12.06
2023-01-02T12:00:18.636Z,11.99
2023-01-02T12:02:54.319Z,12.03
2023-01-02T12:05:37.875Z,12.04
2023-01-02T12:08:15.206Z,11.99
2023-01-02T12:11:00.127Z,11.98
2023-01-02T12:13:57.743Z,11.95
2023-01-02T12:16:38.230Z,11.99
2023-01-02T12:19:39.824Z,11.91
2023-01-02T12:22:33.008Z,11.92
2023-01-02T12:25:25.789Z,11.94
2023-01-02T12:28:04.512Z,11.89
2023-01-02T12:30:41.472Z,11.83
2023-01-02T12:33:36.952Z,11.81
2023-01-02T12:36:27.005Z,11.79
2023-01-02T12:39:20.082Z,11.83
2023-01-02T12:42:02.527Z,11.82
2023-01-02T12:44:49.752Z,11.83
2023-01-02T12:47:50.163Z,11.83
2023-01-02T12:50:49.053Z,11.83
2023-01-02T12:53:41.202Z,11.86
2023-01-02T12:56:19.832Z,11.85
2023-01-02T12:59:04.559Z,11.86
2023-01-02T13:01:43.816Z,11.82
2023-01-02T13:04:22.156Z,11.87
2023-01-02T13:07:00.243Z,11.88
2023-01-02T13:09:36.986Z,11.90
2023-01-02T13:12:16.261Z,11.91
2023-01-02T13:14:53.884Z,11.98
2023-01-02T13:17:45.304Z,12.01
2023-01-02T13:20:31.492Z,12.02
2023-01-02T13:23:14.270Z,12.02
2023-01-02T13:25:51.016Z,12.03
2023-01-02T13:28:24.939Z,11.97
2023-01-02T13:31:44.957Z,11.96
2023-01-02T13:34:08.424Z,11.85
2023-01-02T13:36:47.815Z,11.78
2023-01-02T13:39:28.934Z,11.78
2023-01-02T13:42:22.538Z,11.83
2023-01-02T13:45:01.424Z,11.80
2023-01-02T13:47:37.906Z,11.55
2023-01-02T13:50:17.614Z,11.43
2023-01-02T13:53:04.584Z,11.40
2023-01-02T13:55:38.867Z,11.30
2023-01-02T13:58:47.230Z,11.30
2023-01-02T14:02:03.410Z,11.21
2023-01-02T14:04:44.041Z,11.18
2023-01-02T14:07:50.748Z,11.15
2023-01-02T14:10:41.110Z,10.97
2023-01-02T14:13:37.454Z,10.97
2023-01-02T14:16:41.717Z,10.87
2023-01-02T14:19:26.209Z,10.79
2023-01-02T14:22:13.331Z,10.81
2023-01-02T14:24:49.860Z,10.74
2023-01-02T14:27:27.305Z,10.64
2023-01-02T14:30:05.841Z,10.58
2023-01-02T14:32:42.912Z,10.55
2023-01-02T14:35:31.801Z,10.54
2023-01-02T14:38:19.290Z,10.49
2023-01-02T14:40:54.957Z,10.39
2023-01-02T14:43:34.395Z,10.22
2023-01-02T14:46:16.765Z,10.10
2023-01-02T14:48:58.725Z,10.03
2023-01-02T14:51:37.442Z,9.90
2023-01-02T14:54:19.668Z,9.82
2023-01-02T14:57:03.212Z,9.80
2023-01-02T14:59:42.994Z,9.89
2023-01-02T15:02:21.798Z,9.82
2023-01-02T15:04:59.162Z,9.70
2023-01-02T15:07:34.779Z,9.66
2023-01-02T15:10:15.401Z,9.63
2023-01-02T15:13:06.554Z,9.55
2023-01-02T15:15:43.235Z,9.38
2023-01-02T15:18:23.561Z,9.29
2023-01-02T15:20:58.451Z,9.20
2023-01-02T15:23:31.508Z,9.08
2023-01-02T15:26:31.864Z,9.04
2023-01-02T15:29:02.399Z,8.99
2023-01-02T15:31:35.716Z,8.99
2023-01-02T15:34:08.234Z,8.98
2023-01-02T15:36:43.171Z,8.94
2023-01-02T15:39:20.543Z,8.91
2023-01-02T15:41:59.923Z,8.89
2023-01-02T15:44:53.567Z,8.85
2023-01-02T15:47:28.437Z,8.82
2023-01-02T15:50:05.335Z,8.79
2023-01-02T15:52:40.529Z,8.79
2023-01-02T15:55:17.380Z,8.78
2023-01-02T15:57:55.652Z,8.60
2023-01-02T16:00:38.499Z,8.55
2023-01-02T16:03:14.455Z,8.48
2023-01-02T16:05:59.915Z,8.41
2023-01-02T16:08:37.781Z,8.33
2023-01-02T16:11:17.501Z,8.31
2023-01-02T16:14:13.021Z,8.31
2023-01-02T16:16:53.384Z,8.30
2023-01-02T16:19:36.259Z,8.24
2023-01-02T16:22:18.802Z,8.19
2023-01-02T16:24:59.791Z,8.19
2023-01-02T16:27:35.969Z,8.22
2023-01-02T16:30:32.638Z,8.23
2023-01-02T16:33:21.078Z,8.17
2023-01-02T16:36:00.893Z,8.16
2023-01-02T16:38:46.313Z,8.18
2023-01-02T16:42:14.552Z,8.18
2023-01-02T16:44:59.803Z,8.08
2023-01-02T16:47:40.404Z,8.02
2023-01-02T16:50:23.750Z,8.03
2023-01-02T16:53:01.612Z,8.03
2023-01-02T16:55:37.775Z,8.07
2023-01-02T16:58:15.994Z,8.07
2023-01-02T17:01:01.539Z,8.07
2023-01-02T17:03:38.741Z,8.06
2023-01-02T17:06:20.380Z,8.06
2023-01-02T17:08:55.617Z,8.08
2023-01-02T17:11:32.372Z,8.07
2023-01-02T17:14:09.103Z,8.08
2023-01-02T17:16:44.883Z,8.07
2023-01-02T17:19:22.906Z,8.07
2023-01-02T17:21:59.709Z,8.06
2023-01-02T17:24:35.923Z,8.06
2023-01-02T17:27:12.268Z,8.05
2023-01-02T17:29:47.403Z,8.05
2023-01-02T17:32:26.801Z,8.03
2023-01-02T17:35:05.473Z,8.01
2023-01-02T17:37:42.761Z,7.99
2023-01-02T17:40:21.283Z,7.99
2023-01-02T17:42:59.624Z,7.97
2023-01-02T17:45:38.659Z,7.95
2023-01-02T17:48:20.030Z,7.95
2023-01-02T17:50:59.615Z,7.97
2023-01-02T17:53:35.580Z,7.95
2023-01-02T17:56:20.665Z,7.87
2023-01-02T17:58:59.607Z,7.69
2023-01-02T18:01:40.054Z,7.65
2023-01-02T18:04:17.300Z,7.63
2023-01-02T18:06:54.015Z,7.61
2023-01-02T18:09:31.118Z,7.59
2023-01-02T18:12:08.111Z,7.66
2023-01-02T18:14:47.726Z,7.65
2023-01-02T18:17:30.339Z,7.62
2023-01-02T18:20:09.860Z,7.61
2023-01-02T18:22:50.123Z,7.61
2023-01-02T18:25:29.820Z,7.60
2023-01-02T18:28:16.594Z,7.57
2023-01-02T18:30:56.777Z,7.56
2023-01-02T18:33:37.506Z,7.56
2023-01-02T18:36:27.434Z,7.55
2023-01-02T18:39:23.702Z,7.49
2023-01-02T18:42:17.909Z,7.48
2023-01-02T18:44:57.041Z,7.41
2023-01-02T18:47:38.633Z,7.39
2023-01-02T18:50:35.734Z,7.44
2023-01-02T18:53:25.509Z,7.48
2023-01-02T18:56:19.616Z,7.55
2023-01-02T18:59:08.081Z,7.65
2023-01-02T19:01:53.193Z,7.68
2023-01-02T19:04:36.588Z,7.65
2023-01-02T19:07:31.542Z,7.62
2023-01-02T19:10:36.181Z,7.63
2023-01-02T19:13:22.423Z,7.64
2023-01-02T19:16:02.669Z,7.64
2023-01-02T19:18:50.412Z,7.66
2023-01-02T19:21:31.415Z,7.68
2023-01-02T19:24:19.836Z,7.72
2023-01-02T19:27:01.033Z,7.73
2023-01-02T19:29:40.149Z,7.74
2023-01-02T19:32:30.155Z,7.72
2023-01-02T19:35:40.903Z,7.77
2023-01-02T19:38:31.169Z,7.74
2023-01-02T19:41:07.794Z,7.74
2023-01-02T19:43:43.909Z,7.73
2023-01-02T19:46:21.484Z,7.69
2023-01-02T19:48:58.305Z,7.68
2023-01-02T19:51:35.118Z,7.65
2023-01-02T19:54:11.954Z,7.64
2023-01-02T19:56:48.264Z,7.64
2023-01-02T19:59:32.263Z,7.60
2023-01-02T20:02:09.614Z,7.58
2023-01-02T20:04:46.827Z,7.56
2023-01-02T20:07:25.725Z,7.53
2023-01-02T20:10:05.413Z,7.54
2023-01-02T20:12:43.219Z,7.53
2023-01-02T20:15:24.631Z,7.55
2023-01-02T20:18:08.330Z,7.59
2023-01-02T20:20:48.018Z,7.61
2023-01-02T20:23:29.703Z,7.66
2023-01-02T20:26:06.792Z,7.75
2023-01-02T20:28:42.862Z,7.82
2023-01-02T20:31:19.108Z,7.88
2023-01-02T20:33:58.158Z,7.91
2023-01-02T20:36:40.604Z,7.93
2023-01-02T20:39:19.694Z,7.97
2023-01-02T20:42:00.649Z,8.00
2023-01-02T20:44:37.894Z,8.03
2023-01-02T20:47:16.476Z,8.08
2023-01-02T20:49:55.854Z,8.11
2023-01-02T20:52:35.013Z,8.15
2023-01-02T20:55:13.114Z,8.17
2023-01-02T20:57:51.531Z,8.15
2023-01-02T21:00:26.981Z,8.17
2023-01-02T21:03:00.517Z,8.15
2023-01-02T21:05:33.344Z,8.17
2023-01-02T21:08:06.114Z,8.15
2023-01-02T21:10:38.743Z,8.14
2023-01-02T21:13:12.393Z,8.14
2023-01-02T21:15:49.920Z,8.13
2023-01-02T21:18:24.373Z,8.11
2023-01-02T21:21:00.753Z,8.09
2023-01-02T21:23:37.053Z,8.10
2023-01-02T21:26:12.104Z,8.11
2023-01-02T21:28:47.798Z,8.13
2023-01-02T21:31:23.032Z,8.12
2023-01-02T21:33:55.956Z,8.15
2023-01-02T21:36:28.639Z,8.14
2023-01-02T21:39:01.232Z,8.13
2023-01-02T21:41:52.627Z,8.11
2023-01-02T21:44:25.207Z,8.09
2023-01-02T21:46:58.452Z,8.05
2023-01-02T21:49:31.431Z,8.05
2023-01-02T21:52:03.947Z,8.03
2023-01-02T21:54:36.853Z,8.02
2023-01-02T21:57:10.606Z,8.04
2023-01-02T21:59:43.338Z,8.02
2023-01-02T22:02:18.191Z,7.96
2023-01-02T22:04:51.233Z,7.97
2023-01-02T22:07:35.934Z,7.98
2023-01-02T22:10:13.451Z,7.95
2023-01-02T22:12:48.314Z,7.95
2023-01-02T22:15:20.977Z,7.94
2023-01-02T22:17:54.232Z,7.94
2023-01-02T22:20:26.660Z,7.92
2023-01-02T22:22:59.283Z,7.88
2023-01-02T22:25:33.995Z,7.86
2023-01-02T22:28:06.864Z,7.86
2023-01-02T22:30:42.550Z,7.78
2023-01-02T22:33:16.300Z,7.76
2023-01-02T22:35:49.670Z,7.79
2023-01-02T22:38:22.953Z,7.77
2023-01-02T22:40:56.538Z,7.79
2023-01-02T22:43:27.690Z,7.83
2023-01-02T22:46:05.332Z,7.82
2023-01-02T22:48:42.754Z,7.86
2023-01-02T22:51:17.194Z,7.86
2023-01-02T22:53:50.972Z,7.90
2023-01-02T22:56:25.625Z,7.92
2023-01-02T22:59:00.648Z,7.97
2023-01-02T23:01:36.044Z,7.96
2023-01-02T23:04:16.114Z,7.95
2023-01-02T23:07:14.039Z,7.93
2023-01-02T23:09:42.303Z,7.94
2023-01-02T23:12:15.162Z,7.94
2023-01-02T23:14:47.754Z,7.94
2023-01-02T23:17:37.473Z,7.96
2023-01-02T23:20:11.874Z,7.91
2023-01-02T23:22:44.312Z,7.93
2023-01-02T23:25:17.514Z,7.93
2023-01-02T23:27:50.363Z,7.81
2023-01-02T23:30:23.209Z,7.77
2023-01-02T23:32:56.104Z,7.72
2023-01-02T23:35:28.773Z,7.71
2023-01-02T23:38:01.564Z,7.70
2023-01-02T23:40:34.553Z,7.68
2023-01-02T23:43:07.103Z,7.68
2023-01-02T23:45:39.865Z,7.65
2023-01-02T23:48:12.445Z,7.63
2023-01-02T23:50:47.472Z,7.64
2023-01-02T23:53:20.951Z,7.64
2023-01-02T23:55:53.682Z,7.62
2023-01-02T23:58:26.621Z,7.62
